Time;durP1;ratioP1;P1;durP2;ratioP2;P2;SDS_P1;SDS_P2;PMS_P1;PMS_P2;Temp;Humidity;BMP_temperature;BMP_pressure;BME280_temperature;BME280_humidity;BME280_pressure;Samples;Min_cycle;Max_cycle;Signal;HPM_P1;HPM_P2
2023/10/12 00:00:25;;;;;;;2.25;0.50;;;;;;;;;;5138087;27;20053;-82
2023/10/12 00:02:52;;;;;;;2.80;0.77;;;;;;;;;;5138257;27;20064;-82
2023/10/12 00:05:18;;;;;;;2.22;0.38;;;;;;;;;;5137750;27;20043;-82
2023/10/12 00:07:49;;;;;;;0.80;0.40;;;;;;;;;;5120771;27;20050;-82
2023/10/12 00:12:46;;;;;;;2.50;0.13;;;;;;;;;;5120851;27;20042;-83
2023/10/12 00:17:45;;;;;;;0.10;0.08;;;;;;;;;;5137100;27;20133;-82
2023/10/12 00:20:21;;;;;;;3.90;0.05;;;;;;;;;;5120000;27;20504;-82
2023/10/12 00:22:47;;;;;;;0.47;0.10;;;;;;;;;;5137543;27;20043;-82
2023/10/12 00:25:16;;;;;;;1.23;0.10;;;;;;;;;;5120230;27;20057;-82
2023/10/12 00:27:43;;;;;;;2.35;0.20;;;;;;;;;;5137456;27;20050;-82
2023/10/12 00:30:09;;;;;;;3.97;0.30;;;;;;;;;;5155896;27;20478;-82
2023/10/12 00:32:36;;;;;;;2.90;0.30;;;;;;;;;;5137387;27;20039;-82
2023/10/12 00:35:03;;;;;;;4.70;0.45;;;;;;;;;;5120315;27;20477;-82
2023/10/12 00:37:32;;;;;;;4.57;0.50;;;;;;;;;;5120523;27;20069;-81
2023/10/12 00:39:59;;;;;;;2.33;0.20;;;;;;;;;;5137371;27;20121;-82
2023/10/12 00:42:32;;;;;;;2.20;0.30;;;;;;;;;;5119939;27;20058;-81
2023/10/12 00:45:05;;;;;;;5.32;0.40;;;;;;;;;;5137735;27;20043;-82
2023/10/12 00:47:44;;;;;;;3.85;0.30;;;;;;;;;;5155427;27;20529;-81
2023/10/12 00:50:14;;;;;;;3.83;0.47;;;;;;;;;;5104674;27;20057;-82
2023/10/12 00:52:55;;;;;;;4.85;0.38;;;;;;;;;;5120590;27;20050;-82
2023/10/12 00:55:26;;;;;;;2.22;0.25;;;;;;;;;;5137107;27;20039;-82
2023/10/12 00:57:52;;;;;;;3.40;0.20;;;;;;;;;;5137310;27;20505;-82
2023/10/12 01:00:20;;;;;;;5.03;0.50;;;;;;;;;;5137598;27;20050;-82
2023/10/12 01:03:06;;;;;;;3.90;0.40;;;;;;;;;;5136893;27;20038;-82
2023/10/12 01:05:35;;;;;;;7.57;0.70;;;;;;;;;;5122780;27;20051;-82
2023/10/12 01:08:05;;;;;;;4.00;0.38;;;;;;;;;;5136970;27;20141;-83
2023/10/12 01:10:33;;;;;;;4.55;0.47;;;;;;;;;;5119979;27;20474;-82
2023/10/12 01:13:03;;;;;;;5.07;0.57;;;;;;;;;;5136868;27;20051;-82
2023/10/12 01:15:31;;;;;;;3.75;0.32;;;;;;;;;;5136835;27;20046;-83
2023/10/12 01:17:57;;;;;;;4.22;0.52;;;;;;;;;;5137280;27;20405;-83
2023/10/12 01:20:27;;;;;;;4.15;0.40;;;;;;;;;;5136970;27;20050;-82
2023/10/12 01:22:53;;;;;;;4.85;0.60;;;;;;;;;;5155548;27;20073;-83
2023/10/12 01:25:21;;;;;;;5.45;0.40;;;;;;;;;;5119273;27;20050;-83
2023/10/12 01:27:47;;;;;;;4.65;0.57;;;;;;;;;;5120134;27;20082;-83
2023/10/12 01:30:20;;;;;;;7.53;0.70;;;;;;;;;;5139104;27;20087;-82
2023/10/12 01:32:55;;;;;;;9.60;0.97;;;;;;;;;;5125445;27;20442;-82
2023/10/12 01:35:33;;;;;;;6.67;0.50;;;;;;;;;;5123988;27;20050;-82
2023/10/12 01:38:08;;;;;;;5.82;0.60;;;;;;;;;;5141245;27;20541;-80
2023/10/12 01:43:17;;;;;;;6.45;0.70;;;;;;;;;;5136812;27;20043;-79
2023/10/12 01:45:43;;;;;;;5.88;0.60;;;;;;;;;;5120217;27;20054;-80
2023/10/12 01:48:16;;;;;;;10.75;0.77;;;;;;;;;;5137372;27;20078;-80
2023/10/12 01:50:43;;;;;;;9.35;0.88;;;;;;;;;;5137137;27;20186;-80
2023/10/12 01:53:34;;;;;;;9.15;0.82;;;;;;;;;;5136952;27;20134;-81
2023/10/12 01:55:59;;;;;;;7.00;0.52;;;;;;;;;;5136427;27;20056;-80
2023/10/12 01:58:31;;;;;;;11.75;0.88;;;;;;;;;;5138058;27;20479;-79
2023/10/12 02:01:18;;;;;;;7.43;0.90;;;;;;;;;;5120802;27;20386;-79
2023/10/12 02:03:45;;;;;;;5.28;0.57;;;;;;;;;;5120086;27;20380;-79
2023/10/12 02:06:14;;;;;;;5.97;0.75;;;;;;;;;;5119755;27;20047;-80
2023/10/12 02:08:46;;;;;;;6.95;0.80;;;;;;;;;;5136872;27;20047;-81
2023/10/12 02:11:26;;;;;;;6.22;0.80;;;;;;;;;;5136906;27;20051;-81
2023/10/12 02:14:01;;;;;;;3.13;0.65;;;;;;;;;;5137708;27;20062;-81
2023/10/12 02:16:37;;;;;;;11.40;1.10;;;;;;;;;;5137013;27;20047;-81
2023/10/12 02:19:07;;;;;;;5.97;1.02;;;;;;;;;;5136875;27;20042;-80
2023/10/12 02:21:37;;;;;;;5.78;0.77;;;;;;;;;;5136919;27;20163;-80
2023/10/12 02:31:46;;;;;;;4.78;0.82;;;;;;;;;;5136513;27;20051;-79
2023/10/12 02:34:16;;;;;;;3.47;0.60;;;;;;;;;;5136969;27;20062;-79
2023/10/12 02:36:56;;;;;;;3.08;0.60;;;;;;;;;;5137312;27;20043;-80
2023/10/12 02:39:22;;;;;;;3.55;0.57;;;;;;;;;;5118461;27;20051;-80
2023/10/12 02:41:56;;;;;;;4.70;0.70;;;;;;;;;;5143784;27;20383;-81
2023/10/12 02:44:23;;;;;;;6.85;0.77;;;;;;;;;;5139554;27;20543;-81
2023/10/12 02:47:34;;;;;;;5.80;0.70;;;;;;;;;;5139475;27;20151;-82
2023/10/12 02:49:39;;;;;;;10.45;1.52;;;;;;;;;;5114493;27;20137;-82
2023/10/12 02:52:08;;;;;;;7.65;0.70;;;;;;;;;;5157863;27;20390;-82
2023/10/12 02:54:39;;;;;;;8.77;1.20;;;;;;;;;;5139170;27;20051;-82
2023/10/12 02:57:05;;;;;;;6.00;0.68;;;;;;;;;;5123565;27;20440;-82
2023/10/12 02:59:38;;;;;;;8.45;0.70;;;;;;;;;;5156930;27;20038;-82
2023/10/12 03:02:39;;;;;;;5.93;1.08;;;;;;;;;;5121438;27;20376;-82
2023/10/12 03:04:56;;;;;;;7.93;1.05;;;;;;;;;;5134186;27;20050;-82
2023/10/12 03:07:22;;;;;;;5.80;1.02;;;;;;;;;;5157416;27;20050;-82
2023/10/12 03:09:56;;;;;;;14.05;1.88;;;;;;;;;;5157394;27;20419;-82
2023/10/12 03:12:26;;;;;;;10.88;1.65;;;;;;;;;;5122164;27;20046;-83
2023/10/12 03:14:53;;;;;;;6.70;1.27;;;;;;;;;;5122109;27;20412;-83
2023/10/12 03:17:26;;;;;;;7.55;1.02;;;;;;;;;;5121998;27;20119;-82
2023/10/12 03:19:55;;;;;;;8.73;1.55;;;;;;;;;;5138970;27;20043;-82
2023/10/12 03:22:31;;;;;;;12.23;1.63;;;;;;;;;;5121919;27;20047;-80
2023/10/12 03:25:05;;;;;;;6.32;1.20;;;;;;;;;;5121367;27;20120;-80
2023/10/12 03:27:33;;;;;;;6.10;1.60;;;;;;;;;;5139202;27;20082;-80
2023/10/12 03:30:10;;;;;;;7.20;1.10;;;;;;;;;;5157656;27;20057;-79
2023/10/12 03:32:36;;;;;;;6.20;0.98;;;;;;;;;;5157427;27;20089;-81
2023/10/12 03:35:05;;;;;;;7.82;1.45;;;;;;;;;;5104332;27;20363;-81
2023/10/12 03:37:47;;;;;;;6.30;0.90;;;;;;;;;;5138688;27;20547;-81
2023/10/12 03:43:05;;;;;;;6.55;1.33;;;;;;;;;;5138139;27;20425;-82
2023/10/12 03:45:34;;;;;;;5.47;1.33;;;;;;;;;;5138792;27;20043;-83
2023/10/12 03:48:04;;;;;;;7.25;1.40;;;;;;;;;;5121797;27;20038;-82
2023/10/12 03:50:52;;;;;;;7.88;1.40;;;;;;;;;;5121975;27;20050;-82
2023/10/12 03:53:20;;;;;;;7.25;1.33;;;;;;;;;;5137665;27;20089;-82
2023/10/12 03:55:49;;;;;;;8.32;1.77;;;;;;;;;;5105084;27;20051;-82
2023/10/12 03:58:23;;;;;;;7.30;1.23;;;;;;;;;;5138276;27;20050;-82
2023/10/12 04:01:06;;;;;;;7.13;1.70;;;;;;;;;;5122742;27;20051;-82
2023/10/12 04:03:38;;;;;;;4.07;1.13;;;;;;;;;;5121614;27;20494;-82
2023/10/12 04:06:15;;;;;;;9.00;2.05;;;;;;;;;;5104839;27;20055;-82
2023/10/12 04:08:51;;;;;;;8.00;1.73;;;;;;;;;;5138879;27;20069;-82
2023/10/12 04:21:17;;;;;;;9.50;2.22;;;;;;;;;;5120799;27;20039;-82
2023/10/12 04:24:27;;;;;;;14.43;3.40;;;;;;;;;;5120541;27;20432;-82
2023/10/12 04:29:08;;;;;;;7.15;2.08;;;;;;;;;;5121543;27;20078;-81
2023/10/12 04:31:34;;;;;;;9.35;2.53;;;;;;;;;;5120171;27;20482;-81
2023/10/12 04:34:08;;;;;;;11.27;2.83;;;;;;;;;;5103747;27;20046;-81
2023/10/12 04:44:35;;;;;;;10.32;2.05;;;;;;;;;;5155934;27;20055;-81
2023/10/12 04:46:58;;;;;;;8.10;2.20;;;;;;;;;;5122944;27;20057;-81
2023/10/12 04:54:59;;;;;;;7.07;1.90;;;;;;;;;;5122368;27;20077;-80
2023/10/12 04:57:26;;;;;;;9.80;2.40;;;;;;;;;;5155276;27;20034;-80
2023/10/12 05:00:06;;;;;;;9.77;2.10;;;;;;;;;;5129011;27;20129;-80
2023/10/12 05:07:57;;;;;;;8.90;1.95;;;;;;;;;;5157985;27;20042;-79
2023/10/12 05:10:28;;;;;;;6.03;1.80;;;;;;;;;;5157895;27;20050;-80
2023/10/12 05:13:03;;;;;;;6.85;1.85;;;;;;;;;;5140555;27;20042;-80
2023/10/12 05:15:39;;;;;;;5.03;1.45;;;;;;;;;;5157802;27;20043;-80
2023/10/12 05:18:17;;;;;;;10.52;2.13;;;;;;;;;;5140654;27;20060;-81
2023/10/12 05:20:44;;;;;;;9.38;2.47;;;;;;;;;;5123919;27;20082;-80
2023/10/12 05:23:11;;;;;;;6.70;1.55;;;;;;;;;;5157701;27;20046;-80
2023/10/12 05:26:10;;;;;;;8.00;1.50;;;;;;;;;;5157077;27;20397;-81
2023/10/12 05:28:32;;;;;;;8.77;2.50;;;;;;;;;;5140878;27;20466;-81
2023/10/12 05:36:00;;;;;;;12.48;2.67;;;;;;;;;;5157570;27;20096;-80
2023/10/12 05:38:34;;;;;;;7.72;2.35;;;;;;;;;;5157633;27;20065;-80
2023/10/12 05:41:01;;;;;;;7.50;2.40;;;;;;;;;;5140088;27;20046;-81
2023/10/12 05:43:31;;;;;;;7.97;2.88;;;;;;;;;;5157738;27;20046;-80
2023/10/12 05:46:18;;;;;;;9.63;3.35;;;;;;;;;;5140374;27;20480;-80
2023/10/12 05:48:51;;;;;;;10.40;2.53;;;;;;;;;;5156769;27;20058;-80
2023/10/12 05:51:24;;;;;;;7.13;2.20;;;;;;;;;;5176161;27;20125;-80
2023/10/12 05:54:01;;;;;;;6.15;1.98;;;;;;;;;;5158097;27;20102;-80
2023/10/12 05:56:28;;;;;;;8.30;2.88;;;;;;;;;;5142287;27;20089;-80
2023/10/12 05:58:54;;;;;;;8.07;2.63;;;;;;;;;;5157501;27;20106;-80
2023/10/12 06:01:32;;;;;;;6.30;2.80;;;;;;;;;;5139990;27;20042;-80
2023/10/12 06:04:08;;;;;;;9.25;3.30;;;;;;;;;;5124871;27;20462;-80
2023/10/12 06:06:41;;;;;;;10.02;2.60;;;;;;;;;;5157594;27;20046;-80
2023/10/12 06:09:20;;;;;;;7.30;3.13;;;;;;;;;;5175882;27;20068;-80
2023/10/12 06:11:47;;;;;;;10.98;3.25;;;;;;;;;;5141684;27;20054;-80
2023/10/12 06:14:14;;;;;;;8.25;3.00;;;;;;;;;;5140104;27;20477;-80
2023/10/12 06:16:41;;;;;;;8.23;3.13;;;;;;;;;;5145006;27;20081;-80
2023/10/12 06:19:34;;;;;;;6.28;3.47;;;;;;;;;;5122704;27;20047;-79
2023/10/12 06:22:13;;;;;;;15.25;4.50;;;;;;;;;;5140229;27;20051;-80
2023/10/12 06:24:41;;;;;;;9.68;3.38;;;;;;;;;;5139390;27;20114;-80
2023/10/12 06:29:46;;;;;;;9.70;4.10;;;;;;;;;;5139896;27;20089;-80
2023/10/12 06:32:19;;;;;;;7.55;3.67;;;;;;;;;;5139956;27;20076;-79
2023/10/12 06:34:45;;;;;;;9.35;3.15;;;;;;;;;;5122956;27;20496;-79
2023/10/12 06:37:49;;;;;;;11.57;3.38;;;;;;;;;;5158036;27;20046;-79
2023/10/12 06:42:45;;;;;;;11.27;3.80;;;;;;;;;;5139206;27;20055;-79
2023/10/12 06:45:15;;;;;;;8.18;3.13;;;;;;;;;;5122683;27;20095;-80
2023/10/12 06:47:41;;;;;;;9.50;2.80;;;;;;;;;;5122265;27;20054;-80
2023/10/12 06:50:20;;;;;;;11.07;3.65;;;;;;;;;;5138921;27;20058;-80
2023/10/12 06:52:46;;;;;;;10.45;3.50;;;;;;;;;;5139325;27;20513;-80
2023/10/12 06:55:21;;;;;;;11.38;4.22;;;;;;;;;;5157212;27;20050;-79
2023/10/12 06:57:52;;;;;;;12.93;4.57;;;;;;;;;;5139311;27;20487;-80
2023/10/12 07:00:33;;;;;;;12.38;3.80;;;;;;;;;;5123497;27;20050;-80
2023/10/12 07:03:00;;;;;;;11.30;4.20;;;;;;;;;;5139009;27;20475;-80
2023/10/12 07:05:33;;;;;;;9.48;3.97;;;;;;;;;;5139265;27;20043;-80
2023/10/12 07:07:59;;;;;;;13.75;4.97;;;;;;;;;;5139276;27;20046;-80
2023/10/12 07:10:28;;;;;;;8.05;3.10;;;;;;;;;;5139044;27;20130;-80
2023/10/12 07:12:59;;;;;;;10.80;4.38;;;;;;;;;;5137016;27;20052;-79
2023/10/12 07:15:31;;;;;;;13.45;3.47;;;;;;;;;;5159965;27;20120;-79
2023/10/12 07:17:58;;;;;;;8.20;4.20;;;;;;;;;;5142646;27;20085;-79
2023/10/12 07:22:57;;;;;;;6.82;3.35;;;;;;;;;;5159441;27;20470;-79
2023/10/12 07:25:26;;;;;;;14.20;4.70;;;;;;;;;;5159044;27;20077;-79
2023/10/12 07:28:01;;;;;;;9.38;4.35;;;;;;;;;;5160144;27;20068;-79
2023/10/12 07:30:30;;;;;;;17.58;5.18;;;;;;;;;;5159559;27;20050;-79
2023/10/12 07:33:07;;;;;;;21.10;6.55;;;;;;;;;;5177860;27;20052;-79
2023/10/12 07:35:42;;;;;;;10.30;4.40;;;;;;;;;;5159748;27;20041;-79
2023/10/12 07:38:28;;;;;;;20.95;6.40;;;;;;;;;;5159476;27;20049;-79
2023/10/12 07:43:20;;;;;;;8.75;4.72;;;;;;;;;;5159439;27;20184;-79
2023/10/12 07:45:50;;;;;;;11.05;5.05;;;;;;;;;;5177554;27;20132;-79
2023/10/12 07:49:22;;;;;;;12.23;4.32;;;;;;;;;;5159171;27;20042;-79
2023/10/12 07:53:56;;;;;;;10.27;4.10;;;;;;;;;;5158879;27;20372;-79
2023/10/12 07:56:22;;;;;;;10.02;4.15;;;;;;;;;;5159536;27;20149;-79
2023/10/12 07:58:58;;;;;;;10.32;4.03;;;;;;;;;;5159488;27;20038;-78
2023/10/12 08:03:52;;;;;;;14.35;4.65;;;;;;;;;;5158917;27;20178;-78
2023/10/12 08:06:27;;;;;;;9.65;4.57;;;;;;;;;;5177317;27;20046;-79
2023/10/12 08:09:02;;;;;;;13.05;4.55;;;;;;;;;;5159204;27;20050;-79
2023/10/12 08:11:31;;;;;;;13.65;5.18;;;;;;;;;;5158834;27;20134;-79
2023/10/12 08:13:59;;;;;;;10.80;4.85;;;;;;;;;;5158786;27;20117;-78
2023/10/12 08:16:26;;;;;;;9.50;4.50;;;;;;;;;;5141438;27;20038;-78
2023/10/12 08:24:04;;;;;;;9.60;3.47;;;;;;;;;;5158263;27;20133;-78
2023/10/12 08:30:12;;;;;;;9.90;2.42;;;;;;;;;;5142938;27;20050;-78
2023/10/12 08:39:37;;;;;;;8.13;1.40;;;;;;;;;;5157175;27;20042;-78
2023/10/12 08:44:50;;;;;;;7.60;0.88;;;;;;;;;;5157482;27;20073;-78
2023/10/12 08:50:08;;;;;;;7.22;1.10;;;;;;;;;;5158182;27;20077;-78
2023/10/12 08:52:35;;;;;;;13.63;1.40;;;;;;;;;;5156961;27;20038;-78
2023/10/12 08:57:55;;;;;;;7.80;1.10;;;;;;;;;;5157430;27;20133;-79
2023/10/12 09:03:52;;;;;;;6.82;1.30;;;;;;;;;;5151561;27;20482;-78
2023/10/12 09:05:51;;;;;;;7.40;1.38;;;;;;;;;;5139229;27;20532;-78
2023/10/12 09:10:51;;;;;;;8.18;1.50;;;;;;;;;;5155557;27;20043;-78
2023/10/12 09:13:22;;;;;;;9.93;1.45;;;;;;;;;;5136666;27;20077;-78
2023/10/12 09:15:54;;;;;;;11.35;1.73;;;;;;;;;;5157531;27;20042;-78
2023/10/12 09:18:21;;;;;;;6.95;1.30;;;;;;;;;;5155806;27;20088;-78
2023/10/12 09:28:43;;;;;;;6.53;0.85;;;;;;;;;;5153855;27;20486;-78
2023/10/12 09:31:09;;;;;;;7.95;1.30;;;;;;;;;;5154857;27;20038;-78
2023/10/12 09:33:54;;;;;;;11.05;1.10;;;;;;;;;;5153858;27;20077;-78
2023/10/12 09:36:22;;;;;;;9.85;1.75;;;;;;;;;;5154139;27;20088;-78
2023/10/12 09:38:48;;;;;;;8.65;1.00;;;;;;;;;;5154988;27;20394;-78
2023/10/12 09:41:16;;;;;;;6.60;1.00;;;;;;;;;;5154190;27;20038;-78
2023/10/12 09:43:46;;;;;;;6.35;1.27;;;;;;;;;;5158447;27;20051;-78
2023/10/12 09:46:14;;;;;;;11.82;1.55;;;;;;;;;;5170710;27;20490;-78
2023/10/12 09:48:44;;;;;;;10.13;2.35;;;;;;;;;;5154796;27;20042;-78
2023/10/12 09:51:18;;;;;;;10.23;1.98;;;;;;;;;;5158580;27;20046;-78
2023/10/12 09:53:58;;;;;;;8.25;2.58;;;;;;;;;;5160463;27;20046;-78
2023/10/12 09:56:29;;;;;;;12.15;2.17;;;;;;;;;;5160955;27;20397;-78
2023/10/12 10:07:08;;;;;;;10.50;2.25;;;;;;;;;;5161794;27;20077;-78
2023/10/12 10:12:04;;;;;;;10.07;1.90;;;;;;;;;;5161124;27;20100;-79
2023/10/12 10:14:34;;;;;;;9.27;1.45;;;;;;;;;;5179504;27;20046;-79
2023/10/12 10:17:01;;;;;;;8.02;1.80;;;;;;;;;;5143742;27;20098;-78
2023/10/12 10:19:31;;;;;;;15.95;1.92;;;;;;;;;;5179369;27;20057;-78
2023/10/12 10:22:07;;;;;;;9.50;1.30;;;;;;;;;;5160713;27;20054;-78
2023/10/12 10:24:46;;;;;;;10.10;1.67;;;;;;;;;;5143874;27;20058;-78
2023/10/12 10:27:15;;;;;;;10.90;2.00;;;;;;;;;;5160708;27;20129;-78
2023/10/12 10:29:53;;;;;;;10.77;1.52;;;;;;;;;;5156898;27;20044;-78
2023/10/12 10:32:38;;;;;;;10.57;1.60;;;;;;;;;;5157143;27;20042;-78
2023/10/12 10:35:18;;;;;;;10.48;1.08;;;;;;;;;;5170430;27;20042;-78
2023/10/12 10:37:57;;;;;;;7.32;1.13;;;;;;;;;;5152963;27;20113;-78
2023/10/12 10:40:39;;;;;;;10.30;0.90;;;;;;;;;;5156989;27;20081;-78
2023/10/12 10:43:08;;;;;;;10.27;1.02;;;;;;;;;;5155813;27;20050;-78
2023/10/12 10:45:37;;;;;;;10.57;1.20;;;;;;;;;;5139087;27;20047;-77
2023/10/12 10:48:04;;;;;;;9.20;1.90;;;;;;;;;;5136216;27;20058;-77
2023/10/12 10:50:33;;;;;;;11.00;1.38;;;;;;;;;;5138343;27;20059;-78
2023/10/12 10:53:00;;;;;;;10.13;1.60;;;;;;;;;;5156160;27;20043;-78
2023/10/12 10:55:31;;;;;;;10.57;1.25;;;;;;;;;;5156695;27;20049;-78
2023/10/12 10:57:57;;;;;;;7.88;1.10;;;;;;;;;;5156256;27;20057;-78
2023/10/12 11:00:33;;;;;;;11.27;1.23;;;;;;;;;;5156757;27;20046;-78
2023/10/12 11:03:08;;;;;;;6.97;1.40;;;;;;;;;;5155893;27;20095;-78
2023/10/12 11:05:37;;;;;;;7.20;0.85;;;;;;;;;;5158187;27;20050;-78
2023/10/12 11:08:19;;;;;;;10.80;1.67;;;;;;;;;;5139758;27;20038;-78
2023/10/12 11:13:34;;;;;;;12.43;1.17;;;;;;;;;;5156543;27;20065;-78
2023/10/12 11:18:48;;;;;;;13.02;1.65;;;;;;;;;;5157025;27;20062;-78
2023/10/12 11:21:15;;;;;;;11.75;1.73;;;;;;;;;;5156260;27;20080;-78
2023/10/12 11:23:44;;;;;;;6.35;0.82;;;;;;;;;;5139143;27;20050;-78
2023/10/12 11:26:20;;;;;;;8.00;0.90;;;;;;;;;;5156316;27;20082;-78
2023/10/12 11:29:04;;;;;;;9.15;1.02;;;;;;;;;;5139004;27;20043;-78
2023/10/12 11:31:30;;;;;;;5.57;0.98;;;;;;;;;;5147427;27;20103;-78
2023/10/12 11:34:12;;;;;;;10.25;1.00;;;;;;;;;;5145908;27;20051;-78
2023/10/12 11:36:38;;;;;;;11.02;1.48;;;;;;;;;;5150686;27;20501;-78
2023/10/12 11:39:17;;;;;;;9.93;1.10;;;;;;;;;;5153632;27;20043;-78
2023/10/12 11:42:06;;;;;;;9.82;1.08;;;;;;;;;;5146601;27;20054;-78
2023/10/12 11:44:33;;;;;;;7.85;0.80;;;;;;;;;;5140635;27;20053;-78
2023/10/12 11:47:01;;;;;;;15.68;1.52;;;;;;;;;;5134758;27;20058;-78
2023/10/12 11:49:30;;;;;;;11.38;0.90;;;;;;;;;;5137431;27;20047;-78
2023/10/12 11:51:57;;;;;;;12.93;1.83;;;;;;;;;;5129174;27;20035;-78
2023/10/12 11:54:32;;;;;;;14.32;1.40;;;;;;;;;;5135353;27;20492;-78
2023/10/12 11:56:59;;;;;;;8.85;1.42;;;;;;;;;;5123831;27;20068;-78
2023/10/12 11:59:26;;;;;;;9.23;1.05;;;;;;;;;;5150403;27;20050;-78
2023/10/12 12:01:55;;;;;;;11.75;1.27;;;;;;;;;;5143226;27;20118;-78
2023/10/12 12:04:30;;;;;;;7.80;0.88;;;;;;;;;;5110678;27;20087;-78
2023/10/12 12:06:56;;;;;;;9.85;1.52;;;;;;;;;;5153972;27;20043;-78
2023/10/12 12:09:23;;;;;;;7.30;1.10;;;;;;;;;;5139495;27;20042;-78
2023/10/12 12:11:49;;;;;;;11.15;1.25;;;;;;;;;;5145876;27;20043;-78
2023/10/12 12:14:15;;;;;;;11.18;1.10;;;;;;;;;;5145670;27;20088;-79
2023/10/12 12:16:42;;;;;;;9.70;2.05;;;;;;;;;;5136101;27;20095;-78
2023/10/12 12:19:17;;;;;;;10.93;2.08;;;;;;;;;;5137846;27;20039;-77
2023/10/12 12:21:45;;;;;;;12.02;3.03;;;;;;;;;;5154112;27;20042;-78
2023/10/12 12:26:49;;;;;;;9.27;3.08;;;;;;;;;;5155916;27;20055;-80
2023/10/12 12:29:16;;;;;;;10.63;3.33;;;;;;;;;;5154296;27;20045;-77
2023/10/12 12:31:42;;;;;;;10.55;2.70;;;;;;;;;;5153857;27;20046;-77
2023/10/12 12:34:08;;;;;;;10.68;2.33;;;;;;;;;;5155431;27;20043;-78
2023/10/12 12:36:35;;;;;;;10.13;2.03;;;;;;;;;;5154883;27;20130;-77
2023/10/12 12:39:08;;;;;;;10.90;1.58;;;;;;;;;;5155184;27;20099;-78
2023/10/12 12:41:35;;;;;;;8.77;1.80;;;;;;;;;;5158266;27;20058;-79
2023/10/12 12:44:02;;;;;;;8.73;1.73;;;;;;;;;;5133811;27;20046;-78
2023/10/12 12:46:32;;;;;;;11.50;2.10;;;;;;;;;;5154517;27;20130;-80
2023/10/12 12:48:58;;;;;;;10.35;1.85;;;;;;;;;;5158037;27;20439;-80
2023/10/12 12:51:24;;;;;;;11.73;2.30;;;;;;;;;;5140541;27;20049;-81
2023/10/12 12:53:52;;;;;;;9.98;2.10;;;;;;;;;;5176155;27;20099;-81
2023/10/12 12:56:19;;;;;;;10.27;1.80;;;;;;;;;;5158086;27;20077;-81
2023/10/12 12:58:46;;;;;;;9.65;1.95;;;;;;;;;;5158033;27;20395;-80
2023/10/12 13:01:17;;;;;;;12.10;1.33;;;;;;;;;;5157306;27;20034;-80
2023/10/12 13:03:43;;;;;;;7.47;1.13;;;;;;;;;;5174867;27;20541;-81
2023/10/12 13:06:09;;;;;;;9.95;1.13;;;;;;;;;;5140577;27;20054;-80
2023/10/12 13:08:38;;;;;;;9.18;1.10;;;;;;;;;;5175615;27;20122;-81
2023/10/12 13:11:04;;;;;;;6.50;1.02;;;;;;;;;;5157356;27;20042;-79
2023/10/12 13:13:33;;;;;;;7.68;1.10;;;;;;;;;;5140552;27;20057;-80
2023/10/12 13:16:00;;;;;;;8.80;0.80;;;;;;;;;;5156933;27;20093;-80
2023/10/12 13:18:29;;;;;;;9.88;1.45;;;;;;;;;;5139702;27;20034;-80
2023/10/12 13:20:57;;;;;;;6.70;0.85;;;;;;;;;;5175281;27;20090;-81
2023/10/12 13:23:23;;;;;;;8.02;0.88;;;;;;;;;;5157543;27;20038;-80
2023/10/12 13:25:50;;;;;;;9.02;1.33;;;;;;;;;;5141389;27;20094;-80
2023/10/12 13:28:16;;;;;;;9.65;0.90;;;;;;;;;;5161769;27;20050;-81
2023/10/12 13:30:43;;;;;;;8.88;1.02;;;;;;;;;;5145039;27;20042;-80
2023/10/12 13:33:11;;;;;;;6.38;0.90;;;;;;;;;;5161855;27;20046;-80
2023/10/12 13:38:09;;;;;;;7.03;0.70;;;;;;;;;;5161817;27;20153;-80
2023/10/12 13:40:38;;;;;;;6.85;1.33;;;;;;;;;;5161708;27;20053;-80
2023/10/12 13:45:47;;;;;;;12.00;2.17;;;;;;;;;;5161658;27;20103;-80
2023/10/12 13:48:31;;;;;;;8.32;1.25;;;;;;;;;;5161347;27;20045;-81
2023/10/12 13:51:04;;;;;;;12.70;1.73;;;;;;;;;;5160840;27;20087;-80
2023/10/12 13:53:36;;;;;;;6.45;1.45;;;;;;;;;;5154903;27;20050;-78
2023/10/12 13:56:04;;;;;;;10.00;1.48;;;;;;;;;;5158798;27;20046;-79
2023/10/12 13:58:33;;;;;;;10.52;1.70;;;;;;;;;;5175388;27;20405;-80
2023/10/12 14:01:01;;;;;;;9.25;2.10;;;;;;;;;;5160095;27;20493;-80
2023/10/12 14:03:28;;;;;;;11.05;2.00;;;;;;;;;;5159961;27;20121;-80
2023/10/12 14:05:56;;;;;;;8.85;1.40;;;;;;;;;;5178518;27;20534;-79
2023/10/12 14:08:23;;;;;;;10.25;1.65;;;;;;;;;;5135691;27;20042;-79
2023/10/12 14:10:51;;;;;;;9.68;2.20;;;;;;;;;;5160927;27;20501;-79
2023/10/12 14:13:17;;;;;;;11.07;1.67;;;;;;;;;;5160779;27;20034;-79
2023/10/12 14:15:43;;;;;;;10.43;1.80;;;;;;;;;;5179518;27;20046;-79
2023/10/12 14:18:16;;;;;;;7.88;1.60;;;;;;;;;;5161106;27;20509;-79
2023/10/12 14:20:44;;;;;;;11.00;1.98;;;;;;;;;;5161139;27;20050;-79
2023/10/12 14:23:11;;;;;;;9.45;1.80;;;;;;;;;;5160679;27;20050;-79
2023/10/12 14:25:38;;;;;;;7.10;1.85;;;;;;;;;;5160719;27;20049;-79
2023/10/12 14:28:06;;;;;;;10.60;2.38;;;;;;;;;;5161027;27;20049;-80
2023/10/12 14:30:32;;;;;;;9.02;2.03;;;;;;;;;;5161019;27;20038;-81
2023/10/12 14:33:02;;;;;;;9.52;1.83;;;;;;;;;;5160765;27;20085;-80
2023/10/12 14:35:35;;;;;;;10.88;1.92;;;;;;;;;;5160783;27;20038;-81
2023/10/12 14:38:02;;;;;;;8.95;2.17;;;;;;;;;;5177872;27;20053;-81
2023/10/12 14:40:32;;;;;;;8.68;1.73;;;;;;;;;;5160129;27;20041;-81
2023/10/12 14:43:11;;;;;;;11.60;1.92;;;;;;;;;;5142528;27;20474;-81
2023/10/12 14:45:45;;;;;;;10.27;1.73;;;;;;;;;;5157493;27;20086;-81
2023/10/12 14:48:11;;;;;;;10.75;1.77;;;;;;;;;;5178445;27;20113;-81
2023/10/12 14:50:38;;;;;;;13.43;1.77;;;;;;;;;;5160173;27;20034;-81
2023/10/12 14:53:05;;;;;;;7.85;1.73;;;;;;;;;;5159377;27;20073;-81
2023/10/12 14:55:31;;;;;;;10.18;2.08;;;;;;;;;;5159490;27;20125;-81
2023/10/12 14:57:58;;;;;;;7.38;1.52;;;;;;;;;;5159804;27;20473;-82
2023/10/12 15:00:24;;;;;;;9.13;1.60;;;;;;;;;;5159446;27;20040;-81
2023/10/12 15:02:55;;;;;;;8.48;1.33;;;;;;;;;;5159575;27;20034;-81
2023/10/12 15:05:25;;;;;;;9.88;2.00;;;;;;;;;;5139888;27;20406;-82
2023/10/12 15:07:52;;;;;;;12.23;2.13;;;;;;;;;;5159723;27;20070;-81
2023/10/12 15:10:18;;;;;;;8.35;2.50;;;;;;;;;;5137501;27;20053;-81
2023/10/12 15:12:48;;;;;;;6.70;2.35;;;;;;;;;;5158074;27;20042;-81
2023/10/12 15:15:18;;;;;;;12.68;2.25;;;;;;;;;;5178168;27;20057;-81
2023/10/12 15:17:45;;;;;;;9.70;1.65;;;;;;;;;;5140063;27;20073;-82
2023/10/12 15:20:18;;;;;;;12.68;2.40;;;;;;;;;;5132490;27;20540;-81
2023/10/12 15:22:47;;;;;;;8.35;2.00;;;;;;;;;;5175128;27;20038;-81
2023/10/12 15:25:15;;;;;;;10.02;2.70;;;;;;;;;;5155802;27;20370;-81
2023/10/12 15:27:41;;;;;;;13.88;3.10;;;;;;;;;;5158999;27;20057;-81
2023/10/12 15:30:11;;;;;;;9.93;3.15;;;;;;;;;;5141451;27;20053;-81
2023/10/12 15:32:40;;;;;;;8.38;3.50;;;;;;;;;;5125283;27;20042;-81
2023/10/12 15:35:10;;;;;;;11.05;3.30;;;;;;;;;;5158702;27;20134;-82
2023/10/12 15:37:40;;;;;;;10.50;3.38;;;;;;;;;;5121637;27;20046;-81
2023/10/12 15:40:09;;;;;;;10.10;3.45;;;;;;;;;;5138171;27;20134;-81
2023/10/12 15:42:35;;;;;;;9.75;3.97;;;;;;;;;;5120437;27;20054;-82
2023/10/12 15:45:02;;;;;;;7.60;3.15;;;;;;;;;;5138503;27;20042;-82
2023/10/12 15:47:30;;;;;;;8.50;3.55;;;;;;;;;;5117676;27;20125;-82
2023/10/12 15:49:57;;;;;;;7.85;2.90;;;;;;;;;;5120238;27;20040;-82
2023/10/12 15:52:23;;;;;;;9.38;4.07;;;;;;;;;;5121870;27;20037;-82
2023/10/12 15:54:50;;;;;;;9.52;3.55;;;;;;;;;;5136830;27;20046;-82
2023/10/12 15:57:17;;;;;;;12.60;4.55;;;;;;;;;;5137216;27;20105;-82
2023/10/12 15:59:44;;;;;;;12.38;5.90;;;;;;;;;;5154810;27;20083;-81
2023/10/12 16:02:10;;;;;;;11.48;5.22;;;;;;;;;;5154435;27;20038;-82
2023/10/12 16:04:37;;;;;;;10.52;4.40;;;;;;;;;;5154529;27;20050;-82
2023/10/12 16:07:05;;;;;;;11.50;5.35;;;;;;;;;;5137398;27;20129;-82
2023/10/12 16:09:36;;;;;;;11.45;5.38;;;;;;;;;;5154565;27;20537;-82
2023/10/12 16:12:03;;;;;;;10.55;4.85;;;;;;;;;;5154583;27;20041;-83
2023/10/12 16:14:29;;;;;;;11.88;4.85;;;;;;;;;;5136778;27;20046;-82
2023/10/12 16:16:55;;;;;;;10.13;5.03;;;;;;;;;;5137176;27;20066;-82
2023/10/12 16:19:22;;;;;;;11.32;5.05;;;;;;;;;;5155524;27;20039;-82
2023/10/12 16:21:48;;;;;;;13.52;4.97;;;;;;;;;;5155456;27;20479;-82
2023/10/12 16:24:16;;;;;;;9.55;4.60;;;;;;;;;;5153443;27;20049;-82
2023/10/12 16:26:43;;;;;;;10.68;4.00;;;;;;;;;;5136909;27;20077;-82
2023/10/12 16:29:11;;;;;;;10.02;4.50;;;;;;;;;;5153862;27;20100;-83
2023/10/12 16:31:37;;;;;;;9.10;4.50;;;;;;;;;;5140750;27;20038;-82
2023/10/12 16:34:06;;;;;;;9.27;3.50;;;;;;;;;;5153414;27;20046;-83
2023/10/12 16:36:32;;;;;;;11.10;3.88;;;;;;;;;;5136745;27;20078;-82
2023/10/12 16:39:02;;;;;;;12.45;3.83;;;;;;;;;;5119674;27;20046;-82
2023/10/12 16:41:29;;;;;;;8.88;3.97;;;;;;;;;;5154059;27;20427;-82
2023/10/12 16:43:55;;;;;;;11.40;4.55;;;;;;;;;;5136336;27;20078;-82
2023/10/12 16:46:23;;;;;;;18.17;5.53;;;;;;;;;;5153746;27;20053;-83
2023/10/12 16:48:49;;;;;;;9.75;4.35;;;;;;;;;;5153932;27;20074;-82
2023/10/12 16:51:16;;;;;;;9.27;4.55;;;;;;;;;;5153865;27;20054;-82
2023/10/12 16:53:42;;;;;;;11.23;5.10;;;;;;;;;;5139079;27;20035;-82
2023/10/12 16:56:12;;;;;;;15.48;5.22;;;;;;;;;;5156971;27;20038;-81
2023/10/12 16:58:40;;;;;;;9.68;4.15;;;;;;;;;;5157882;27;20133;-82
2023/10/12 17:01:06;;;;;;;11.20;5.28;;;;;;;;;;5156549;27;20494;-82
2023/10/12 17:03:35;;;;;;;23.23;7.72;;;;;;;;;;5140618;27;20137;-81
2023/10/12 17:06:05;;;;;;;16.17;5.80;;;;;;;;;;5140637;27;20125;-81
2023/10/12 17:08:32;;;;;;;13.30;5.38;;;;;;;;;;5140486;27;20086;-81